sensor_id;sensor_type;location;lat;lon;timestamp;P1;durP1;ratioP1;P2;durP2;ratioP2
80307;SDS011;69616;43.522;1.348;2023-06-14T00:01:01;4.97;;;2.30;;
80307;SDS011;69616;43.522;1.348;2023-06-14T00:03:28;6.35;;;2.13;;
80307;SDS011;69616;43.522;1.348;2023-06-14T00:05:54;7.78;;;2.50;;
80307;SDS011;69616;43.522;1.348;2023-06-14T00:08:19;7.17;;;2.10;;
80307;SDS011;69616;43.522;1.348;2023-06-14T00:10:48;8.00;;;2.20;;
80307;SDS011;69616;43.522;1.348;2023-06-14T00:13:14;5.15;;;2.00;;
80307;SDS011;69616;43.522;1.348;2023-06-14T00:15:39;6.80;;;2.47;;
80307;SDS011;69616;43.522;1.348;2023-06-14T00:18:05;6.00;;;2.60;;
80307;SDS011;69616;43.522;1.348;2023-06-14T00:20:31;5.97;;;2.37;;
80307;SDS011;69616;43.522;1.348;2023-06-14T00:22:58;4.90;;;2.33;;
80307;SDS011;69616;43.522;1.348;2023-06-14T00:25:24;5.82;;;2.28;;
80307;SDS011;69616;43.522;1.348;2023-06-14T00:27:50;4.83;;;2.47;;
80307;SDS011;69616;43.522;1.348;2023-06-14T00:30:16;5.15;;;2.35;;
80307;SDS011;69616;43.522;1.348;2023-06-14T00:32:42;7.30;;;2.30;;
80307;SDS011;69616;43.522;1.348;2023-06-14T00:35:08;6.57;;;2.42;;
80307;SDS011;69616;43.522;1.348;2023-06-14T00:37:34;5.95;;;2.50;;
80307;SDS011;69616;43.522;1.348;2023-06-14T00:40:00;6.22;;;2.20;;
80307;SDS011;69616;43.522;1.348;2023-06-14T00:42:26;8.70;;;3.00;;
80307;SDS011;69616;43.522;1.348;2023-06-14T00:44:52;5.53;;;2.50;;
80307;SDS011;69616;43.522;1.348;2023-06-14T00:47:18;6.93;;;2.60;;
80307;SDS011;69616;43.522;1.348;2023-06-14T00:49:47;7.75;;;2.80;;
80307;SDS011;69616;43.522;1.348;2023-06-14T00:52:15;8.82;;;2.67;;
80307;SDS011;69616;43.522;1.348;2023-06-14T00:54:41;9.07;;;3.10;;
80307;SDS011;69616;43.522;1.348;2023-06-14T00:57:07;8.53;;;3.80;;
80307;SDS011;69616;43.522;1.348;2023-06-14T00:59:33;7.88;;;3.90;;
80307;SDS011;69616;43.522;1.348;2023-06-14T01:02:03;8.90;;;3.70;;
80307;SDS011;69616;43.522;1.348;2023-06-14T01:04:29;8.10;;;4.10;;
80307;SDS011;69616;43.522;1.348;2023-06-14T01:09:48;9.88;;;4.28;;
80307;SDS011;69616;43.522;1.348;2023-06-14T01:15:26;8.63;;;4.40;;
80307;SDS011;69616;43.522;1.348;2023-06-14T01:17:55;8.75;;;4.53;;
80307;SDS011;69616;43.522;1.348;2023-06-14T01:20:28;8.75;;;4.75;;
80307;SDS011;69616;43.522;1.348;2023-06-14T01:22:55;10.38;;;5.18;;
80307;SDS011;69616;43.522;1.348;2023-06-14T01:25:21;11.33;;;5.40;;
80307;SDS011;69616;43.522;1.348;2023-06-14T01:28:04;11.15;;;4.95;;
80307;SDS011;69616;43.522;1.348;2023-06-14T01:30:41;9.40;;;5.00;;
80307;SDS011;69616;43.522;1.348;2023-06-14T01:33:11;8.67;;;5.20;;
80307;SDS011;69616;43.522;1.348;2023-06-14T01:35:38;8.40;;;4.85;;
80307;SDS011;69616;43.522;1.348;2023-06-14T01:38:04;11.55;;;5.38;;
80307;SDS011;69616;43.522;1.348;2023-06-14T01:40:32;9.77;;;5.13;;
80307;SDS011;69616;43.522;1.348;2023-06-14T01:42:59;11.07;;;5.07;;
80307;SDS011;69616;43.522;1.348;2023-06-14T01:45:26;10.00;;;4.93;;
80307;SDS011;69616;43.522;1.348;2023-06-14T01:47:53;9.20;;;4.97;;
80307;SDS011;69616;43.522;1.348;2023-06-14T01:50:20;10.63;;;4.72;;
80307;SDS011;69616;43.522;1.348;2023-06-14T01:52:45;9.95;;;5.28;;
80307;SDS011;69616;43.522;1.348;2023-06-14T01:55:11;9.00;;;5.13;;
80307;SDS011;69616;43.522;1.348;2023-06-14T01:57:36;12.77;;;6.47;;
80307;SDS011;69616;43.522;1.348;2023-06-14T02:00:02;13.37;;;6.40;;
80307;SDS011;69616;43.522;1.348;2023-06-14T02:02:29;12.20;;;6.60;;
80307;SDS011;69616;43.522;1.348;2023-06-14T02:04:54;14.10;;;7.20;;
80307;SDS011;69616;43.522;1.348;2023-06-14T02:07:22;13.43;;;7.00;;
80307;SDS011;69616;43.522;1.348;2023-06-14T02:09:48;14.90;;;7.07;;
80307;SDS011;69616;43.522;1.348;2023-06-14T02:12:13;14.03;;;7.50;;
80307;SDS011;69616;43.522;1.348;2023-06-14T02:14:38;9.90;;;6.20;;
80307;SDS011;69616;43.522;1.348;2023-06-14T02:17:04;12.93;;;6.83;;
80307;SDS011;69616;43.522;1.348;2023-06-14T02:19:31;13.32;;;6.72;;
80307;SDS011;69616;43.522;1.348;2023-06-14T02:21:57;13.57;;;7.30;;
80307;SDS011;69616;43.522;1.348;2023-06-14T02:24:22;11.60;;;6.60;;
80307;SDS011;69616;43.522;1.348;2023-06-14T02:26:48;12.43;;;6.15;;
80307;SDS011;69616;43.522;1.348;2023-06-14T02:29:14;12.50;;;6.63;;
80307;SDS011;69616;43.522;1.348;2023-06-14T02:31:41;12.20;;;6.43;;
80307;SDS011;69616;43.522;1.348;2023-06-14T02:34:06;11.03;;;6.13;;
80307;SDS011;69616;43.522;1.348;2023-06-14T02:36:34;14.32;;;6.30;;
80307;SDS011;69616;43.522;1.348;2023-06-14T02:39:06;11.30;;;6.05;;
80307;SDS011;69616;43.522;1.348;2023-06-14T02:41:34;11.95;;;6.18;;
80307;SDS011;69616;43.522;1.348;2023-06-14T02:44:00;11.63;;;6.27;;
80307;SDS011;69616;43.522;1.348;2023-06-14T02:46:25;10.40;;;6.13;;
80307;SDS011;69616;43.522;1.348;2023-06-14T02:48:50;10.63;;;6.30;;
80307;SDS011;69616;43.522;1.348;2023-06-14T02:51:16;8.93;;;6.00;;
80307;SDS011;69616;43.522;1.348;2023-06-14T02:53:41;14.07;;;6.27;;
80307;SDS011;69616;43.522;1.348;2023-06-14T02:56:06;11.80;;;6.23;;
80307;SDS011;69616;43.522;1.348;2023-06-14T02:58:32;11.77;;;6.00;;
80307;SDS011;69616;43.522;1.348;2023-06-14T03:00:58;10.85;;;6.35;;
80307;SDS011;69616;43.522;1.348;2023-06-14T03:03:27;11.90;;;6.82;;
80307;SDS011;69616;43.522;1.348;2023-06-14T03:05:53;12.17;;;6.40;;
80307;SDS011;69616;43.522;1.348;2023-06-14T03:08:19;12.00;;;6.65;;
80307;SDS011;69616;43.522;1.348;2023-06-14T03:10:45;11.70;;;6.37;;
80307;SDS011;69616;43.522;1.348;2023-06-14T03:13:12;10.73;;;6.32;;
80307;SDS011;69616;43.522;1.348;2023-06-14T03:15:38;11.82;;;6.40;;
80307;SDS011;69616;43.522;1.348;2023-06-14T03:18:07;11.10;;;6.68;;
80307;SDS011;69616;43.522;1.348;2023-06-14T03:20:33;12.65;;;6.55;;
80307;SDS011;69616;43.522;1.348;2023-06-14T03:23:01;12.03;;;6.60;;
80307;SDS011;69616;43.522;1.348;2023-06-14T03:25:27;11.88;;;6.07;;
80307;SDS011;69616;43.522;1.348;2023-06-14T03:27:54;11.90;;;6.37;;
80307;SDS011;69616;43.522;1.348;2023-06-14T03:30:20;14.57;;;6.85;;
80307;SDS011;69616;43.522;1.348;2023-06-14T03:32:46;11.93;;;7.35;;
80307;SDS011;69616;43.522;1.348;2023-06-14T03:35:11;12.43;;;5.90;;
80307;SDS011;69616;43.522;1.348;2023-06-14T03:37:42;9.75;;;6.07;;
80307;SDS011;69616;43.522;1.348;2023-06-14T03:40:11;12.17;;;6.23;;
80307;SDS011;69616;43.522;1.348;2023-06-14T03:42:37;14.80;;;6.75;;
80307;SDS011;69616;43.522;1.348;2023-06-14T03:45:03;11.20;;;6.13;;
80307;SDS011;69616;43.522;1.348;2023-06-14T03:47:29;13.60;;;6.37;;
80307;SDS011;69616;43.522;1.348;2023-06-14T03:49:54;12.65;;;6.20;;
80307;SDS011;69616;43.522;1.348;2023-06-14T03:52:20;13.27;;;5.97;;
80307;SDS011;69616;43.522;1.348;2023-06-14T03:54:47;13.05;;;6.05;;
80307;SDS011;69616;43.522;1.348;2023-06-14T03:57:12;10.90;;;5.87;;
80307;SDS011;69616;43.522;1.348;2023-06-14T03:59:38;10.47;;;6.10;;
80307;SDS011;69616;43.522;1.348;2023-06-14T04:02:03;13.10;;;6.35;;
80307;SDS011;69616;43.522;1.348;2023-06-14T04:04:29;11.57;;;5.67;;
80307;SDS011;69616;43.522;1.348;2023-06-14T04:06:55;10.70;;;5.93;;
80307;SDS011;69616;43.522;1.348;2023-06-14T04:09:22;11.27;;;6.65;;
80307;SDS011;69616;43.522;1.348;2023-06-14T04:11:49;13.98;;;6.20;;
80307;SDS011;69616;43.522;1.348;2023-06-14T04:14:17;11.32;;;6.43;;
80307;SDS011;69616;43.522;1.348;2023-06-14T04:16:43;11.50;;;6.30;;
80307;SDS011;69616;43.522;1.348;2023-06-14T04:19:09;13.30;;;6.82;;
80307;SDS011;69616;43.522;1.348;2023-06-14T04:21:34;13.37;;;6.93;;
80307;SDS011;69616;43.522;1.348;2023-06-14T04:24:00;15.57;;;7.53;;
80307;SDS011;69616;43.522;1.348;2023-06-14T04:26:26;15.50;;;7.70;;
80307;SDS011;69616;43.522;1.348;2023-06-14T04:28:57;14.48;;;8.10;;
80307;SDS011;69616;43.522;1.348;2023-06-14T04:31:27;17.20;;;9.75;;
80307;SDS011;69616;43.522;1.348;2023-06-14T04:33:58;16.90;;;8.95;;
80307;SDS011;69616;43.522;1.348;2023-06-14T04:36:24;16.75;;;8.35;;
80307;SDS011;69616;43.522;1.348;2023-06-14T04:38:50;13.60;;;8.60;;
80307;SDS011;69616;43.522;1.348;2023-06-14T04:41:19;15.45;;;9.10;;
80307;SDS011;69616;43.522;1.348;2023-06-14T04:43:45;18.13;;;9.18;;
80307;SDS011;69616;43.522;1.348;2023-06-14T04:46:13;17.90;;;9.77;;
80307;SDS011;69616;43.522;1.348;2023-06-14T04:48:40;16.87;;;10.20;;
80307;SDS011;69616;43.522;1.348;2023-06-14T04:51:07;16.95;;;9.20;;
80307;SDS011;69616;43.522;1.348;2023-06-14T04:53:34;17.85;;;9.85;;
80307;SDS011;69616;43.522;1.348;2023-06-14T04:56:00;18.45;;;10.35;;
80307;SDS011;69616;43.522;1.348;2023-06-14T04:58:27;20.30;;;9.57;;
80307;SDS011;69616;43.522;1.348;2023-06-14T05:00:53;17.23;;;10.00;;
80307;SDS011;69616;43.522;1.348;2023-06-14T05:03:20;20.58;;;11.70;;
80307;SDS011;69616;43.522;1.348;2023-06-14T05:05:46;22.13;;;10.85;;
80307;SDS011;69616;43.522;1.348;2023-06-14T05:08:12;19.80;;;10.20;;
80307;SDS011;69616;43.522;1.348;2023-06-14T05:10:38;19.67;;;10.33;;
80307;SDS011;69616;43.522;1.348;2023-06-14T05:13:03;16.80;;;10.88;;
80307;SDS011;69616;43.522;1.348;2023-06-14T05:15:29;22.00;;;10.30;;
80307;SDS011;69616;43.522;1.348;2023-06-14T05:17:54;18.13;;;10.80;;
80307;SDS011;69616;43.522;1.348;2023-06-14T05:20:24;19.63;;;10.60;;
80307;SDS011;69616;43.522;1.348;2023-06-14T05:22:53;20.30;;;11.90;;
80307;SDS011;69616;43.522;1.348;2023-06-14T05:25:19;21.60;;;11.15;;
80307;SDS011;69616;43.522;1.348;2023-06-14T05:27:46;19.00;;;10.60;;
80307;SDS011;69616;43.522;1.348;2023-06-14T05:30:12;20.45;;;11.57;;
80307;SDS011;69616;43.522;1.348;2023-06-14T05:32:38;17.80;;;10.35;;
80307;SDS011;69616;43.522;1.348;2023-06-14T05:35:04;23.80;;;11.07;;
80307;SDS011;69616;43.522;1.348;2023-06-14T05:37:30;18.45;;;10.52;;
80307;SDS011;69616;43.522;1.348;2023-06-14T05:39:56;21.80;;;11.77;;
80307;SDS011;69616;43.522;1.348;2023-06-14T05:42:21;17.50;;;10.93;;
80307;SDS011;69616;43.522;1.348;2023-06-14T05:44:47;17.67;;;10.73;;
80307;SDS011;69616;43.522;1.348;2023-06-14T05:47:12;15.53;;;10.50;;
80307;SDS011;69616;43.522;1.348;2023-06-14T05:49:37;20.80;;;10.77;;
80307;SDS011;69616;43.522;1.348;2023-06-14T05:52:03;18.77;;;11.27;;
80307;SDS011;69616;43.522;1.348;2023-06-14T05:54:29;19.60;;;11.50;;
80307;SDS011;69616;43.522;1.348;2023-06-14T05:56:54;18.60;;;10.57;;
80307;SDS011;69616;43.522;1.348;2023-06-14T05:59:19;20.07;;;10.13;;
80307;SDS011;69616;43.522;1.348;2023-06-14T06:01:45;22.60;;;11.37;;
80307;SDS011;69616;43.522;1.348;2023-06-14T06:04:11;15.73;;;9.82;;
80307;SDS011;69616;43.522;1.348;2023-06-14T06:06:36;17.80;;;10.30;;
80307;SDS011;69616;43.522;1.348;2023-06-14T06:09:02;18.13;;;10.37;;
80307;SDS011;69616;43.522;1.348;2023-06-14T06:11:27;18.27;;;10.07;;
80307;SDS011;69616;43.522;1.348;2023-06-14T06:13:53;19.17;;;10.50;;
80307;SDS011;69616;43.522;1.348;2023-06-14T06:16:18;19.00;;;10.60;;
80307;SDS011;69616;43.522;1.348;2023-06-14T06:18:44;21.97;;;10.80;;
80307;SDS011;69616;43.522;1.348;2023-06-14T06:21:09;20.03;;;10.83;;
80307;SDS011;69616;43.522;1.348;2023-06-14T06:23:34;23.33;;;11.20;;
80307;SDS011;69616;43.522;1.348;2023-06-14T06:26:00;18.15;;;10.32;;
80307;SDS011;69616;43.522;1.348;2023-06-14T06:28:26;17.97;;;10.93;;
80307;SDS011;69616;43.522;1.348;2023-06-14T06:30:51;20.27;;;11.30;;
80307;SDS011;69616;43.522;1.348;2023-06-14T06:33:17;22.15;;;10.55;;
80307;SDS011;69616;43.522;1.348;2023-06-14T06:35:42;20.77;;;10.30;;
80307;SDS011;69616;43.522;1.348;2023-06-14T06:38:08;20.17;;;10.07;;
80307;SDS011;69616;43.522;1.348;2023-06-14T06:40:35;17.38;;;10.75;;
80307;SDS011;69616;43.522;1.348;2023-06-14T06:43:01;20.43;;;11.30;;
80307;SDS011;69616;43.522;1.348;2023-06-14T06:45:27;19.50;;;10.77;;
80307;SDS011;69616;43.522;1.348;2023-06-14T06:47:53;23.27;;;11.07;;
80307;SDS011;69616;43.522;1.348;2023-06-14T06:50:18;20.52;;;11.35;;
80307;SDS011;69616;43.522;1.348;2023-06-14T06:52:44;19.73;;;10.70;;
80307;SDS011;69616;43.522;1.348;2023-06-14T06:55:11;22.55;;;10.80;;
80307;SDS011;69616;43.522;1.348;2023-06-14T06:57:37;18.92;;;10.25;;
80307;SDS011;69616;43.522;1.348;2023-06-14T07:00:03;22.60;;;10.70;;
80307;SDS011;69616;43.522;1.348;2023-06-14T07:02:33;19.08;;;11.13;;
80307;SDS011;69616;43.522;1.348;2023-06-14T07:04:58;16.67;;;10.33;;
80307;SDS011;69616;43.522;1.348;2023-06-14T07:07:23;21.10;;;11.23;;
80307;SDS011;69616;43.522;1.348;2023-06-14T07:09:49;18.52;;;11.32;;
80307;SDS011;69616;43.522;1.348;2023-06-14T07:12:14;19.50;;;10.50;;
80307;SDS011;69616;43.522;1.348;2023-06-14T07:14:40;22.00;;;11.97;;
80307;SDS011;69616;43.522;1.348;2023-06-14T07:17:05;20.03;;;10.43;;
80307;SDS011;69616;43.522;1.348;2023-06-14T07:19:31;23.73;;;10.37;;
80307;SDS011;69616;43.522;1.348;2023-06-14T07:21:56;19.10;;;11.23;;
80307;SDS011;69616;43.522;1.348;2023-06-14T07:24:23;22.90;;;10.70;;
80307;SDS011;69616;43.522;1.348;2023-06-14T07:26:48;21.07;;;11.10;;
80307;SDS011;69616;43.522;1.348;2023-06-14T07:29:14;21.55;;;10.35;;
80307;SDS011;69616;43.522;1.348;2023-06-14T07:31:39;19.50;;;10.47;;
80307;SDS011;69616;43.522;1.348;2023-06-14T07:34:05;20.90;;;10.25;;
80307;SDS011;69616;43.522;1.348;2023-06-14T07:36:30;20.40;;;10.13;;
80307;SDS011;69616;43.522;1.348;2023-06-14T07:38:56;20.00;;;10.77;;
80307;SDS011;69616;43.522;1.348;2023-06-14T07:41:21;21.40;;;10.30;;
80307;SDS011;69616;43.522;1.348;2023-06-14T07:43:46;19.40;;;10.23;;
80307;SDS011;69616;43.522;1.348;2023-06-14T07:46:12;22.57;;;9.90;;
80307;SDS011;69616;43.522;1.348;2023-06-14T07:48:37;16.87;;;9.43;;
80307;SDS011;69616;43.522;1.348;2023-06-14T07:51:03;19.90;;;10.17;;
80307;SDS011;69616;43.522;1.348;2023-06-14T07:53:29;20.52;;;10.43;;
80307;SDS011;69616;43.522;1.348;2023-06-14T07:55:55;22.30;;;10.23;;
80307;SDS011;69616;43.522;1.348;2023-06-14T07:58:21;21.13;;;10.43;;
80307;SDS011;69616;43.522;1.348;2023-06-14T08:00:46;20.00;;;9.52;;
80307;SDS011;69616;43.522;1.348;2023-06-14T08:03:12;22.30;;;10.23;;
80307;SDS011;69616;43.522;1.348;2023-06-14T08:05:37;20.43;;;10.67;;
80307;SDS011;69616;43.522;1.348;2023-06-14T08:08:03;18.17;;;10.37;;
80307;SDS011;69616;43.522;1.348;2023-06-14T08:10:28;21.38;;;10.02;;
80307;SDS011;69616;43.522;1.348;2023-06-14T08:12:54;21.70;;;10.03;;
80307;SDS011;69616;43.522;1.348;2023-06-14T08:15:19;21.00;;;10.40;;
80307;SDS011;69616;43.522;1.348;2023-06-14T08:17:45;19.67;;;10.10;;
80307;SDS011;69616;43.522;1.348;2023-06-14T08:20:11;22.27;;;11.00;;
80307;SDS011;69616;43.522;1.348;2023-06-14T08:22:38;17.70;;;10.57;;
80307;SDS011;69616;43.522;1.348;2023-06-14T08:25:04;19.05;;;10.75;;
80307;SDS011;69616;43.522;1.348;2023-06-14T08:27:30;19.93;;;10.27;;
80307;SDS011;69616;43.522;1.348;2023-06-14T08:29:55;25.05;;;10.93;;
80307;SDS011;69616;43.522;1.348;2023-06-14T08:32:21;26.63;;;12.07;;
80307;SDS011;69616;43.522;1.348;2023-06-14T08:34:47;23.08;;;11.73;;
80307;SDS011;69616;43.522;1.348;2023-06-14T08:37:12;21.80;;;10.80;;
80307;SDS011;69616;43.522;1.348;2023-06-14T08:39:38;26.77;;;11.90;;
80307;SDS011;69616;43.522;1.348;2023-06-14T08:42:04;21.07;;;11.03;;
80307;SDS011;69616;43.522;1.348;2023-06-14T08:44:32;18.50;;;9.77;;
80307;SDS011;69616;43.522;1.348;2023-06-14T08:46:57;22.80;;;10.30;;
80307;SDS011;69616;43.522;1.348;2023-06-14T08:49:24;17.88;;;11.02;;
80307;SDS011;69616;43.522;1.348;2023-06-14T08:51:55;24.87;;;11.07;;
80307;SDS011;69616;43.522;1.348;2023-06-14T08:54:22;17.80;;;10.27;;
80307;SDS011;69616;43.522;1.348;2023-06-14T08:56:49;22.17;;;12.13;;
80307;SDS011;69616;43.522;1.348;2023-06-14T08:59:16;19.95;;;10.98;;
80307;SDS011;69616;43.522;1.348;2023-06-14T09:01:43;21.83;;;12.10;;
80307;SDS011;69616;43.522;1.348;2023-06-14T09:04:10;20.63;;;11.43;;
80307;SDS011;69616;43.522;1.348;2023-06-14T09:06:35;23.02;;;11.85;;
80307;SDS011;69616;43.522;1.348;2023-06-14T09:09:01;24.50;;;11.83;;
80307;SDS011;69616;43.522;1.348;2023-06-14T09:11:30;24.63;;;12.32;;
80307;SDS011;69616;43.522;1.348;2023-06-14T09:13:55;20.15;;;10.73;;
80307;SDS011;69616;43.522;1.348;2023-06-14T09:16:21;19.23;;;10.60;;
80307;SDS011;69616;43.522;1.348;2023-06-14T09:18:47;23.90;;;10.68;;
80307;SDS011;69616;43.522;1.348;2023-06-14T09:21:16;20.33;;;10.90;;
80307;SDS011;69616;43.522;1.348;2023-06-14T09:23:42;18.77;;;11.63;;
80307;SDS011;69616;43.522;1.348;2023-06-14T09:26:10;17.48;;;10.38;;
80307;SDS011;69616;43.522;1.348;2023-06-14T09:28:47;20.13;;;10.77;;
80307;SDS011;69616;43.522;1.348;2023-06-14T09:31:17;19.17;;;10.50;;
80307;SDS011;69616;43.522;1.348;2023-06-14T09:33:44;19.50;;;9.93;;
80307;SDS011;69616;43.522;1.348;2023-06-14T09:36:23;16.73;;;10.50;;
80307;SDS011;69616;43.522;1.348;2023-06-14T09:38:55;20.75;;;10.07;;
80307;SDS011;69616;43.522;1.348;2023-06-14T09:41:30;20.95;;;11.60;;
80307;SDS011;69616;43.522;1.348;2023-06-14T09:43:57;19.33;;;10.98;;
80307;SDS011;69616;43.522;1.348;2023-06-14T09:46:25;18.97;;;10.30;;
80307;SDS011;69616;43.522;1.348;2023-06-14T09:48:52;17.90;;;10.40;;
80307;SDS011;69616;43.522;1.348;2023-06-14T09:51:18;22.00;;;10.85;;
80307;SDS011;69616;43.522;1.348;2023-06-14T09:53:46;19.55;;;10.32;;
80307;SDS011;69616;43.522;1.348;2023-06-14T09:56:14;22.67;;;10.27;;
80307;SDS011;69616;43.522;1.348;2023-06-14T09:58:53;19.73;;;9.35;;
80307;SDS011;69616;43.522;1.348;2023-06-14T10:01:20;20.92;;;10.73;;
80307;SDS011;69616;43.522;1.348;2023-06-14T10:03:47;19.88;;;10.35;;
80307;SDS011;69616;43.522;1.348;2023-06-14T10:06:18;18.98;;;10.07;;
80307;SDS011;69616;43.522;1.348;2023-06-14T10:08:49;24.50;;;11.20;;
80307;SDS011;69616;43.522;1.348;2023-06-14T10:11:17;17.40;;;9.80;;
80307;SDS011;69616;43.522;1.348;2023-06-14T10:13:42;19.80;;;9.87;;
80307;SDS011;69616;43.522;1.348;2023-06-14T10:16:18;18.27;;;9.38;;
80307;SDS011;69616;43.522;1.348;2023-06-14T10:19:34;20.48;;;10.45;;
80307;SDS011;69616;43.522;1.348;2023-06-14T10:24:29;16.30;;;9.57;;
80307;SDS011;69616;43.522;1.348;2023-06-14T10:26:57;19.33;;;9.25;;
80307;SDS011;69616;43.522;1.348;2023-06-14T10:29:27;20.13;;;10.20;;
80307;SDS011;69616;43.522;1.348;2023-06-14T10:31:57;19.85;;;10.02;;
80307;SDS011;69616;43.522;1.348;2023-06-14T10:34:27;18.77;;;9.30;;
80307;SDS011;69616;43.522;1.348;2023-06-14T10:37:00;17.17;;;9.60;;
80307;SDS011;69616;43.522;1.348;2023-06-14T10:42:05;20.50;;;9.80;;
80307;SDS011;69616;43.522;1.348;2023-06-14T10:44:32;18.03;;;10.03;;
80307;SDS011;69616;43.522;1.348;2023-06-14T10:46:58;20.90;;;8.73;;
80307;SDS011;69616;43.522;1.348;2023-06-14T10:52:11;16.40;;;9.45;;
80307;SDS011;69616;43.522;1.348;2023-06-14T10:57:57;21.40;;;9.10;;
80307;SDS011;69616;43.522;1.348;2023-06-14T11:00:23;20.70;;;9.73;;
80307;SDS011;69616;43.522;1.348;2023-06-14T11:05:25;18.27;;;9.60;;
80307;SDS011;69616;43.522;1.348;2023-06-14T11:13:02;18.80;;;8.73;;
80307;SDS011;69616;43.522;1.348;2023-06-14T11:15:31;17.10;;;9.15;;
80307;SDS011;69616;43.522;1.348;2023-06-14T11:18:12;14.87;;;9.13;;
80307;SDS011;69616;43.522;1.348;2023-06-14T11:20:39;19.08;;;9.52;;
80307;SDS011;69616;43.522;1.348;2023-06-14T11:23:05;16.52;;;8.90;;
80307;SDS011;69616;43.522;1.348;2023-06-14T11:25:30;17.23;;;8.87;;
80307;SDS011;69616;43.522;1.348;2023-06-14T11:27:57;15.57;;;8.38;;
80307;SDS011;69616;43.522;1.348;2023-06-14T11:30:23;18.38;;;9.20;;
80307;SDS011;69616;43.522;1.348;2023-06-14T11:32:49;15.63;;;8.20;;
80307;SDS011;69616;43.522;1.348;2023-06-14T11:35:17;15.30;;;8.45;;
80307;SDS011;69616;43.522;1.348;2023-06-14T11:37:43;18.10;;;8.55;;
80307;SDS011;69616;43.522;1.348;2023-06-14T11:40:09;16.25;;;7.93;;
80307;SDS011;69616;43.522;1.348;2023-06-14T11:42:37;16.50;;;8.17;;
80307;SDS011;69616;43.522;1.348;2023-06-14T11:45:03;17.23;;;8.85;;
80307;SDS011;69616;43.522;1.348;2023-06-14T11:47:32;19.42;;;8.30;;
80307;SDS011;69616;43.522;1.348;2023-06-14T11:50:02;18.42;;;8.45;;
80307;SDS011;69616;43.522;1.348;2023-06-14T11:52:29;17.67;;;8.50;;
80307;SDS011;69616;43.522;1.348;2023-06-14T11:54:56;16.07;;;8.17;;
80307;SDS011;69616;43.522;1.348;2023-06-14T11:57:22;16.30;;;8.57;;
80307;SDS011;69616;43.522;1.348;2023-06-14T11:59:48;14.35;;;7.80;;
80307;SDS011;69616;43.522;1.348;2023-06-14T12:02:14;15.18;;;8.25;;
80307;SDS011;69616;43.522;1.348;2023-06-14T12:04:41;19.27;;;7.50;;
80307;SDS011;69616;43.522;1.348;2023-06-14T12:07:10;14.70;;;7.93;;
80307;SDS011;69616;43.522;1.348;2023-06-14T12:09:40;14.65;;;7.93;;
80307;SDS011;69616;43.522;1.348;2023-06-14T12:12:09;17.13;;;8.20;;
80307;SDS011;69616;43.522;1.348;2023-06-14T12:14:36;16.63;;;7.60;;
80307;SDS011;69616;43.522;1.348;2023-06-14T12:17:04;15.90;;;7.67;;
80307;SDS011;69616;43.522;1.348;2023-06-14T12:19:33;16.30;;;7.93;;
80307;SDS011;69616;43.522;1.348;2023-06-14T12:22:10;12.90;;;7.65;;
80307;SDS011;69616;43.522;1.348;2023-06-14T12:24:36;13.50;;;7.80;;
80307;SDS011;69616;43.522;1.348;2023-06-14T12:27:03;16.65;;;7.93;;
80307;SDS011;69616;43.522;1.348;2023-06-14T12:29:29;22.27;;;7.43;;
80307;SDS011;69616;43.522;1.348;2023-06-14T12:31:55;14.65;;;8.15;;
80307;SDS011;69616;43.522;1.348;2023-06-14T12:34:22;15.10;;;6.97;;
80307;SDS011;69616;43.522;1.348;2023-06-14T12:36:49;15.15;;;7.50;;
80307;SDS011;69616;43.522;1.348;2023-06-14T12:39:15;17.90;;;8.02;;
80307;SDS011;69616;43.522;1.348;2023-06-14T12:41:41;16.30;;;7.40;;
80307;SDS011;69616;43.522;1.348;2023-06-14T12:44:07;15.00;;;7.85;;
80307;SDS011;69616;43.522;1.348;2023-06-14T12:46:32;13.03;;;7.40;;
80307;SDS011;69616;43.522;1.348;2023-06-14T12:48:58;14.43;;;7.78;;
80307;SDS011;69616;43.522;1.348;2023-06-14T12:51:23;15.77;;;8.00;;
80307;SDS011;69616;43.522;1.348;2023-06-14T12:53:50;14.13;;;7.65;;
80307;SDS011;69616;43.522;1.348;2023-06-14T12:56:16;12.30;;;7.03;;
80307;SDS011;69616;43.522;1.348;2023-06-14T12:58:41;16.10;;;7.37;;
80307;SDS011;69616;43.522;1.348;2023-06-14T13:01:07;12.65;;;7.60;;
80307;SDS011;69616;43.522;1.348;2023-06-14T13:03:33;19.15;;;8.85;;
80307;SDS011;69616;43.522;1.348;2023-06-14T13:06:01;14.47;;;8.27;;
80307;SDS011;69616;43.522;1.348;2023-06-14T13:08:28;12.68;;;7.55;;
80307;SDS011;69616;43.522;1.348;2023-06-14T13:10:54;14.13;;;7.53;;
80307;SDS011;69616;43.522;1.348;2023-06-14T13:13:19;13.38;;;7.18;;
80307;SDS011;69616;43.522;1.348;2023-06-14T13:15:45;13.93;;;7.00;;
80307;SDS011;69616;43.522;1.348;2023-06-14T13:18:11;14.27;;;7.68;;
80307;SDS011;69616;43.522;1.348;2023-06-14T13:20:38;12.43;;;7.55;;
80307;SDS011;69616;43.522;1.348;2023-06-14T13:23:04;14.07;;;7.83;;
80307;SDS011;69616;43.522;1.348;2023-06-14T13:25:32;15.93;;;7.72;;
80307;SDS011;69616;43.522;1.348;2023-06-14T13:27:58;12.45;;;7.22;;
80307;SDS011;69616;43.522;1.348;2023-06-14T13:30:23;13.27;;;7.43;;
80307;SDS011;69616;43.522;1.348;2023-06-14T13:32:49;14.00;;;7.93;;
80307;SDS011;69616;43.522;1.348;2023-06-14T13:35:15;12.25;;;7.47;;
80307;SDS011;69616;43.522;1.348;2023-06-14T13:37:41;12.50;;;7.25;;
80307;SDS011;69616;43.522;1.348;2023-06-14T13:40:06;11.87;;;6.87;;
80307;SDS011;69616;43.522;1.348;2023-06-14T13:42:32;15.87;;;7.30;;
80307;SDS011;69616;43.522;1.348;2023-06-14T13:44:58;12.97;;;7.50;;
80307;SDS011;69616;43.522;1.348;2023-06-14T13:47:23;12.87;;;7.20;;
80307;SDS011;69616;43.522;1.348;2023-06-14T13:49:49;15.07;;;7.50;;
80307;SDS011;69616;43.522;1.348;2023-06-14T13:52:14;14.23;;;7.90;;
80307;SDS011;69616;43.522;1.348;2023-06-14T13:54:40;15.77;;;7.85;;
80307;SDS011;69616;43.522;1.348;2023-06-14T13:57:07;13.15;;;7.28;;
80307;SDS011;69616;43.522;1.348;2023-06-14T13:59:32;13.67;;;6.80;;
80307;SDS011;69616;43.522;1.348;2023-06-14T14:01:58;13.40;;;7.10;;
80307;SDS011;69616;43.522;1.348;2023-06-14T14:04:23;14.93;;;7.63;;
80307;SDS011;69616;43.522;1.348;2023-06-14T14:06:49;15.52;;;8.05;;
80307;SDS011;69616;43.522;1.348;2023-06-14T14:09:14;16.60;;;8.37;;
80307;SDS011;69616;43.522;1.348;2023-06-14T14:11:40;14.80;;;9.47;;
80307;SDS011;69616;43.522;1.348;2023-06-14T14:14:07;17.25;;;9.32;;
80307;SDS011;69616;43.522;1.348;2023-06-14T14:16:33;18.35;;;9.60;;
80307;SDS011;69616;43.522;1.348;2023-06-14T14:18:59;21.10;;;10.23;;
80307;SDS011;69616;43.522;1.348;2023-06-14T14:21:25;17.67;;;9.57;;
80307;SDS011;69616;43.522;1.348;2023-06-14T14:23:50;20.27;;;10.10;;
80307;SDS011;69616;43.522;1.348;2023-06-14T14:26:16;19.13;;;10.18;;
80307;SDS011;69616;43.522;1.348;2023-06-14T14:28:42;16.67;;;9.40;;
80307;SDS011;69616;43.522;1.348;2023-06-14T14:31:07;21.30;;;10.00;;
80307;SDS011;69616;43.522;1.348;2023-06-14T14:33:32;15.77;;;9.10;;
80307;SDS011;69616;43.522;1.348;2023-06-14T14:35:59;16.87;;;9.50;;
80307;SDS011;69616;43.522;1.348;2023-06-14T14:38:28;16.40;;;9.55;;
80307;SDS011;69616;43.522;1.348;2023-06-14T14:40:54;20.15;;;8.73;;
80307;SDS011;69616;43.522;1.348;2023-06-14T14:43:20;16.07;;;9.67;;
80307;SDS011;69616;43.522;1.348;2023-06-14T14:45:45;12.43;;;8.57;;
80307;SDS011;69616;43.522;1.348;2023-06-14T14:48:10;18.10;;;8.73;;
80307;SDS011;69616;43.522;1.348;2023-06-14T14:50:36;15.67;;;8.10;;
80307;SDS011;69616;43.522;1.348;2023-06-14T14:53:01;15.70;;;8.00;;